Chita-Kadala Airport
UIAA : now visible

Airfield :











YOU CAN JOIN US ON...

 
LOGIN :

Register | Disclaimer

   EN    FR    IT 

 









Legend :    VFR   Marginal VFR   IFR   Intensive IFR   Very Intensive IFR
Visi :
Ceiling :
>= 8 km
>= 3000ft
5 to 8 km
1000 to 3000 ft
1500m to 5 km
500 to 1000 ft
800 to 1500m
200 to 500 ft
< 800m
< 200 ft
Symbols :   Thunderstorms  Fog  Heavy snow  Heavy precipitations  Wind > 20 kt






- Airport Elevation : 2272 ft
- IATA code : HTA


UIAA - Chita-Kadala

CURRENT METAR :
  • 011730Z AUTO 30008MPS 9999 NCD 02/M07 Q1018 RMK QFE705/0940

EXPIRED METARs :
  • 011700Z AUTO 30009MPS 9999 NCD 03/M07 Q1018 RMK QFE705/0940
  • 011630Z AUTO 29007MPS 9999 NCD 03/M06 Q1018 RMK QFE704/0939
  • 011600Z AUTO 30008G13MPS 9999 NCD 04/M06 Q1017 RMK QFE704/0939
  • 011530Z AUTO 30006MPS 9999 NCD 04/M07 Q1017 RMK QFE704/0939
  • 011500Z AUTO 29009MPS 9999 NCD 04/M06 Q1017 RMK QFE704/0939

TAF TAF UIAA
Valid from the 01 at 18:00 until the 02 at 18:00 UTC


011700Z 0118/0218 30010G15MPS 9999 SCT030CB
TEMPO 0118/0124 29005G10MPS



MET'MAP, your aeronautical weather chart ! - Copyright ORBIFLY December 2007 - Disclaimer

ORBIFLY MET'MAP TEAM :

Programming & Development : Alexandra Zaïnal
Concept & original design : Baudouin d'Aumeries
Assistance for programming : Marc-Olivier Méhu
Technical & hardware support : Manuel Goepfert

Contact : metmap@orbifly.com




SOURCES & CREDITS :

   NOAA       Earth
Advisory